Aérodrome :
LOGIN :

S'inscrire | Disclaimer

   EN    FR    IT 

 










Légende :    VFR   VFR Marginal   IFR   IFR Intensif   IFR Très Intensif
Visi : 
Plafond : 
>= 8 km
>= 3000ft
5 à 8 km
1000 à 3000 ft
1500m à 5 km
500 à 1000 ft
800 à 1500m
200 à 500 ft
< 800m
< 200 ft
Symboles :   Orages  Brouillard  Fortes neiges  Fortes précipitations  Vent > 20 kt
SIGMETs :   Divers  Orages  Givrage  Turbulence  Onde Orograph.  Cendres Volcan.







- Altitude de l'aérodrome : 609 ft
- Code IATA : BJZ


LEBZ - Badajoz

DERNIER METAR :
  • 191100Z 03005KT 350V070 CAVOK 31/16 Q1013

METARs EXPIRÉS :
  • 191000Z 34004KT 280V050 CAVOK 28/17 Q1013
  • 190900Z 21003KT 130V260 CAVOK 26/16 Q1014

TAF TAF LEBZ
Valide du 19 à 12h jusqu'au 20 à 12h UTC


191100Z 1912/2012 30008KT CAVOK TX39/1916Z TN19/2005Z
Pas de NOTAMs connus pour ce terrain.



MET'MAP, la Météo Aéronautique d'un coup d'oeil ! - Copyright ORBIFLY Décembre 2007 - Disclaimer

ORBIFLY MET'MAP TEAM :

Programmation & Développement : Alexandra Zaïnal
Conception & Développement : Baudouin d'Aumeries
Co-Programmation & Développement : Marc-Olivier Méhu
Soutien technique & logistique : Manuel Goepfert

Contact : metmap@orbifly.com




SOURCES & CREDITS :

   NOAA